createdAt,value
2018-08-11T00:04:58.639Z,99.90
2018-08-11T00:10:01.811Z,99.90
2018-08-11T00:15:06.097Z,99.90
2018-08-11T00:20:11.993Z,99.90
2018-08-11T00:25:15.943Z,99.90
2018-08-11T00:30:21.069Z,99.90
2018-08-11T00:35:24.304Z,99.90
2018-08-11T00:40:27.521Z,99.90
2018-08-11T00:45:30.702Z,99.90
2018-08-11T00:50:34.806Z,99.90
2018-08-11T00:55:37.921Z,99.90
2018-08-11T01:00:40.991Z,99.90
2018-08-11T01:05:44.084Z,99.90
2018-08-11T01:10:47.270Z,99.90
2018-08-11T01:15:50.346Z,99.90
2018-08-11T01:20:53.519Z,99.90
2018-08-11T01:25:56.702Z,99.90
2018-08-11T01:30:59.942Z,99.90
2018-08-11T01:36:03.094Z,99.90
2018-08-11T01:41:06.397Z,99.90
2018-08-11T01:46:10.987Z,99.90
2018-08-11T01:51:14.199Z,99.90
2018-08-11T01:56:17.333Z,99.90
2018-08-11T02:01:20.475Z,99.90
2018-08-11T02:06:23.850Z,99.90
2018-08-11T02:11:27.057Z,99.90
2018-08-11T02:16:30.196Z,99.90
2018-08-11T02:21:33.243Z,99.90
2018-08-11T02:26:36.485Z,99.90
2018-08-11T02:31:39.817Z,99.90
2018-08-11T02:36:42.891Z,99.90
2018-08-11T02:41:46.083Z,99.90
2018-08-11T02:46:49.175Z,99.90
2018-08-11T02:51:52.469Z,99.90
2018-08-11T02:56:55.520Z,99.90
2018-08-11T03:01:58.771Z,99.90
2018-08-11T03:07:02.066Z,99.90
2018-08-11T03:12:05.224Z,99.90
2018-08-11T03:17:08.451Z,99.90
2018-08-11T03:22:11.591Z,99.90
2018-08-11T03:27:14.725Z,99.90
2018-08-11T03:32:17.869Z,99.90
2018-08-11T03:37:21.940Z,99.90
2018-08-11T03:42:25.007Z,99.90
2018-08-11T03:47:28.041Z,99.90
2018-08-11T03:52:31.208Z,99.90
2018-08-11T03:57:34.210Z,99.90
2018-08-11T04:02:37.389Z,99.90
2018-08-11T04:07:40.520Z,99.90
2018-08-11T04:12:43.648Z,99.90
2018-08-11T04:17:46.764Z,99.90
2018-08-11T04:22:49.849Z,99.90
2018-08-11T04:27:52.965Z,99.90
2018-08-11T04:32:56.059Z,99.90
2018-08-11T04:37:59.107Z,99.90
2018-08-11T04:43:02.282Z,99.90
2018-08-11T04:48:05.772Z,99.90
2018-08-11T04:53:08.879Z,99.90
2018-08-11T04:58:11.973Z,99.90
2018-08-11T05:03:15.166Z,99.90
2018-08-11T05:08:18.245Z,99.90
2018-08-11T05:13:21.513Z,99.90
2018-08-11T05:18:24.596Z,99.90
2018-08-11T05:23:27.659Z,99.90
2018-08-11T05:28:30.871Z,99.90
2018-08-11T05:33:33.976Z,99.90
2018-08-11T05:38:37.270Z,99.90
2018-08-11T05:43:40.452Z,99.90
2018-08-11T05:48:43.614Z,99.90
2018-08-11T05:53:47.760Z,99.90
2018-08-11T05:58:51.232Z,99.90
2018-08-11T06:03:54.431Z,99.90
2018-08-11T06:08:57.472Z,99.90
2018-08-11T06:14:00.579Z,99.90
2018-08-11T06:19:03.718Z,99.90
2018-08-11T06:24:06.852Z,99.90
2018-08-11T06:29:10.293Z,99.90
2018-08-11T06:34:13.447Z,99.90
2018-08-11T06:39:16.530Z,99.90
2018-08-11T06:44:19.655Z,99.90
2018-08-11T06:49:22.826Z,99.90
2018-08-11T06:54:26.067Z,99.90
2018-08-11T06:59:29.244Z,99.90
2018-08-11T07:04:32.555Z,99.90
2018-08-11T07:09:35.786Z,99.90
2018-08-11T07:14:38.871Z,95.30
2018-08-11T07:19:42.003Z,94.00
2018-08-11T07:24:45.096Z,93.50
2018-08-11T07:29:48.277Z,91.30
2018-08-11T07:34:51.473Z,90.90
2018-08-11T07:39:56.170Z,91.90
2018-08-11T07:44:59.484Z,91.30
2018-08-11T07:50:04.212Z,91.10
2018-08-11T07:55:07.822Z,91.00
2018-08-11T08:00:12.332Z,91.10
2018-08-11T08:05:16.021Z,91.10
2018-08-11T08:10:19.257Z,91.20
2018-08-11T08:15:23.585Z,91.50
2018-08-11T08:20:26.731Z,91.50
2018-08-11T08:25:30.124Z,91.80
2018-08-11T08:30:33.338Z,91.20
2018-08-11T08:35:36.560Z,89.50
2018-08-11T08:40:39.813Z,88.60
2018-08-11T08:45:43.125Z,89.50
2018-08-11T08:50:46.312Z,87.30
2018-08-11T08:55:49.761Z,86.00
2018-08-11T09:00:53.333Z,84.80
2018-08-11T09:05:56.690Z,84.80
2018-08-11T09:11:00.229Z,80.40
2018-08-11T09:16:03.704Z,80.90
2018-08-11T09:21:07.318Z,82.40
2018-08-11T09:26:11.329Z,82.10
2018-08-11T09:31:14.580Z,81.80
2018-08-11T09:36:18.083Z,83.00
2018-08-11T09:41:21.237Z,81.80
2018-08-11T09:46:24.355Z,80.80
2018-08-11T09:51:29.660Z,79.70
2018-08-11T09:56:33.142Z,79.80
2018-08-11T10:01:42.419Z,79.50
2018-08-11T10:06:45.641Z,79.90
2018-08-11T10:11:48.895Z,79.30
2018-08-11T10:16:52.213Z,79.00
2018-08-11T10:21:56.686Z,79.70
2018-08-11T10:27:00.078Z,81.40
2018-08-11T10:32:03.219Z,81.60
2018-08-11T10:37:06.479Z,79.50
2018-08-11T10:42:10.691Z,81.80
2018-08-11T10:47:15.728Z,80.00
2018-08-11T10:52:19.735Z,79.20
2018-08-11T10:57:23.185Z,81.80
2018-08-11T11:02:26.514Z,80.00
2018-08-11T11:07:29.922Z,79.20
2018-08-11T11:18:39.544Z,78.80
2018-08-11T11:23:46.734Z,81.20
2018-08-11T11:28:50.126Z,82.80
2018-08-11T11:33:56.934Z,83.50
2018-08-11T11:39:00.316Z,85.40
2018-08-11T11:44:03.410Z,84.80
2018-08-11T11:49:06.647Z,83.40
2018-08-11T11:54:09.912Z,82.10
2018-08-11T11:59:13.128Z,80.60
2018-08-11T12:04:16.226Z,77.80
2018-08-11T12:09:19.583Z,78.50
2018-08-11T12:14:23.005Z,78.40
2018-08-11T12:19:26.316Z,74.60
2018-08-11T12:24:29.439Z,73.90
2018-08-11T12:29:34.075Z,73.10
2018-08-11T12:34:37.431Z,72.10
2018-08-11T12:39:40.738Z,73.00
2018-08-11T12:44:44.150Z,73.00
2018-08-11T12:49:47.498Z,70.80
2018-08-11T12:54:50.651Z,73.10
2018-08-11T12:59:54.729Z,71.30
2018-08-11T13:04:57.878Z,69.50
2018-08-11T13:10:01.099Z,68.90
2018-08-11T13:15:05.047Z,67.60
2018-08-11T13:20:09.724Z,67.40
2018-08-11T13:25:14.908Z,68.50
2018-08-11T13:30:18.979Z,67.00
2018-08-11T13:35:22.269Z,66.50
2018-08-11T13:40:25.444Z,64.60
2018-08-11T13:45:28.673Z,64.00
2018-08-11T13:50:33.097Z,63.80
2018-08-11T13:55:36.341Z,63.70
2018-08-11T14:00:39.609Z,63.60
2018-08-11T14:05:42.882Z,60.30
2018-08-11T14:10:46.349Z,61.70
2018-08-11T14:15:49.547Z,62.30
2018-08-11T14:20:53.692Z,63.60
2018-08-11T14:25:57.333Z,64.00
2018-08-11T14:31:01.366Z,64.40
2018-08-11T14:36:04.736Z,64.30
2018-08-11T14:41:08.153Z,60.30
2018-08-11T14:46:11.504Z,60.80
2018-08-11T14:51:15.234Z,60.00
2018-08-11T14:56:20.698Z,60.30
2018-08-11T15:01:23.763Z,59.80
2018-08-11T15:06:26.844Z,59.80
2018-08-11T15:11:30.111Z,61.80
2018-08-11T15:16:33.372Z,60.60
2018-08-11T15:21:36.517Z,59.80
2018-08-11T15:26:39.961Z,60.00
2018-08-11T15:31:43.304Z,59.20
2018-08-11T15:36:46.464Z,59.50
2018-08-11T15:41:49.620Z,58.60
2018-08-11T15:46:53.747Z,59.00
2018-08-11T15:51:57.169Z,58.80
2018-08-11T15:57:00.513Z,58.20
2018-08-11T16:02:03.799Z,58.40
2018-08-11T16:07:06.983Z,59.20
2018-08-11T16:12:10.241Z,58.70
2018-08-11T16:17:13.377Z,57.60
2018-08-11T16:22:16.494Z,57.80
2018-08-11T16:27:19.634Z,58.70
2018-08-11T16:32:22.811Z,58.60
2018-08-11T16:37:25.932Z,57.40
2018-08-11T16:42:29.324Z,58.50
2018-08-11T16:47:32.481Z,60.00
2018-08-11T16:52:35.707Z,59.70
2018-08-11T16:57:38.901Z,60.50
2018-08-11T17:02:42.968Z,60.20
2018-08-11T17:07:46.211Z,60.20
2018-08-11T17:12:49.988Z,60.70
2018-08-11T17:17:53.324Z,61.80
2018-08-11T17:22:56.508Z,61.80
2018-08-11T17:27:59.640Z,61.80
2018-08-11T17:33:03.118Z,62.20
2018-08-11T17:38:06.683Z,62.30
2018-08-11T17:43:09.895Z,63.10
2018-08-11T17:48:13.003Z,64.80
2018-08-11T17:53:16.971Z,65.90
2018-08-11T17:58:20.147Z,67.20
2018-08-11T18:03:24.020Z,68.30
2018-08-11T18:08:27.272Z,69.70
2018-08-11T18:13:31.232Z,70.30
2018-08-11T18:18:34.501Z,71.20
2018-08-11T18:23:37.657Z,71.50
2018-08-11T18:28:40.762Z,72.60
2018-08-11T18:33:44.146Z,73.70
2018-08-11T18:38:47.215Z,74.30
2018-08-11T18:43:50.493Z,76.20
2018-08-11T18:48:54.219Z,76.60
2018-08-11T18:53:57.370Z,78.10
2018-08-11T18:59:00.663Z,80.40
2018-08-11T19:04:04.090Z,82.40
2018-08-11T19:09:11.475Z,83.90
2018-08-11T19:14:15.109Z,84.50
2018-08-11T19:19:18.308Z,84.60
2018-08-11T19:24:21.444Z,84.60
2018-08-11T19:29:26.615Z,85.30
2018-08-11T19:34:30.872Z,84.50
2018-08-11T19:39:34.131Z,84.20
2018-08-11T19:44:40.006Z,84.00
2018-08-11T19:49:43.958Z,83.60
2018-08-11T19:54:49.047Z,83.70
2018-08-11T19:59:52.506Z,84.20
2018-08-11T20:04:57.785Z,84.80
2018-08-11T20:10:01.004Z,84.90
2018-08-11T20:15:06.550Z,85.60
2018-08-11T20:20:13.515Z,86.60
2018-08-11T20:25:16.663Z,86.90
2018-08-11T20:30:19.796Z,87.60
2018-08-11T20:35:24.186Z,89.70
2018-08-11T20:40:29.445Z,90.00
2018-08-11T20:45:32.721Z,90.70
2018-08-11T20:50:35.875Z,91.20
2018-08-11T20:55:39.856Z,91.50
2018-08-11T21:00:43.133Z,91.60
2018-08-11T21:05:47.234Z,91.80
2018-08-11T21:10:50.344Z,92.20
2018-08-11T21:15:53.581Z,92.60
2018-08-11T21:20:56.721Z,92.70
2018-08-11T21:25:59.943Z,93.10
2018-08-11T21:31:03.136Z,93.30
2018-08-11T21:36:11.540Z,93.90
2018-08-11T21:41:14.728Z,94.20
2018-08-11T21:46:17.893Z,94.50
2018-08-11T21:51:22.779Z,94.40
2018-08-11T21:56:26.387Z,94.70
2018-08-11T22:01:29.626Z,95.10
2018-08-11T22:06:35.732Z,95.50
2018-08-11T22:11:38.846Z,95.90
2018-08-11T22:16:42.805Z,96.40
2018-08-11T22:21:46.068Z,96.70
2018-08-11T22:26:52.012Z,97.10
2018-08-11T22:31:55.318Z,97.70
2018-08-11T22:37:00.158Z,98.50
2018-08-11T22:42:15.904Z,98.90
2018-08-11T22:47:19.219Z,99.30
2018-08-11T22:52:22.676Z,99.90
2018-08-11T22:57:25.787Z,99.90
2018-08-11T23:02:29.116Z,99.90
2018-08-11T23:07:32.258Z,99.90
2018-08-11T23:12:35.337Z,99.90
2018-08-11T23:17:38.571Z,99.90
2018-08-11T23:22:41.758Z,99.90
2018-08-11T23:27:44.885Z,99.90
2018-08-11T23:32:48.201Z,99.90
2018-08-11T23:37:51.269Z,99.90
2018-08-11T23:42:54.400Z,99.90
2018-08-11T23:47:57.644Z,99.90
2018-08-11T23:53:00.784Z,99.90
2018-08-11T23:58:04.994Z,99.90
